sensor_id;sensor_type;location;lat;lon;timestamp;temperature;humidity
63289;DHT22;49412;48.162;-1.978;2022-09-09T00:04:31;16.40;99.90
63289;DHT22;49412;48.162;-1.978;2022-09-09T00:07:05;16.30;99.90
63289;DHT22;49412;48.162;-1.978;2022-09-09T00:09:36;16.40;99.90
63289;DHT22;49412;48.162;-1.978;2022-09-09T00:12:06;16.30;99.90
63289;DHT22;49412;48.162;-1.978;2022-09-09T00:14:51;16.30;99.90
63289;DHT22;49412;48.162;-1.978;2022-09-09T00:19:46;16.30;99.90
63289;DHT22;49412;48.162;-1.978;2022-09-09T00:22:17;16.20;99.90
63289;DHT22;49412;48.162;-1.978;2022-09-09T00:24:44;16.20;99.90
63289;DHT22;49412;48.162;-1.978;2022-09-09T00:32:20;16.20;99.90
63289;DHT22;49412;48.162;-1.978;2022-09-09T00:34:54;16.20;99.90
63289;DHT22;49412;48.162;-1.978;2022-09-09T00:37:21;16.20;99.90
63289;DHT22;49412;48.162;-1.978;2022-09-09T00:39:49;16.10;99.90
63289;DHT22;49412;48.162;-1.978;2022-09-09T00:42:18;16.10;99.90
63289;DHT22;49412;48.162;-1.978;2022-09-09T00:55:02;16.00;99.90
63289;DHT22;49412;48.162;-1.978;2022-09-09T00:57:29;16.10;99.90
63289;DHT22;49412;48.162;-1.978;2022-09-09T00:59:58;16.00;99.90
63289;DHT22;49412;48.162;-1.978;2022-09-09T01:02:28;16.00;99.90
63289;DHT22;49412;48.162;-1.978;2022-09-09T01:04:56;16.10;99.90
63289;DHT22;49412;48.162;-1.978;2022-09-09T01:07:24;16.10;99.90
63289;DHT22;49412;48.162;-1.978;2022-09-09T01:09:59;16.20;99.90
63289;DHT22;49412;48.162;-1.978;2022-09-09T01:12:34;16.20;99.90
63289;DHT22;49412;48.162;-1.978;2022-09-09T01:17:33;16.10;99.90
63289;DHT22;49412;48.162;-1.978;2022-09-09T01:27:40;16.00;99.90
63289;DHT22;49412;48.162;-1.978;2022-09-09T01:30:11;15.90;99.90
63289;DHT22;49412;48.162;-1.978;2022-09-09T01:37:50;15.90;99.90
63289;DHT22;49412;48.162;-1.978;2022-09-09T01:40:16;15.90;99.90
63289;DHT22;49412;48.162;-1.978;2022-09-09T01:42:42;15.90;99.90
63289;DHT22;49412;48.162;-1.978;2022-09-09T01:45:08;15.90;99.90
63289;DHT22;49412;48.162;-1.978;2022-09-09T01:47:34;15.90;99.90
63289;DHT22;49412;48.162;-1.978;2022-09-09T01:49:59;16.00;99.90
63289;DHT22;49412;48.162;-1.978;2022-09-09T01:52:26;16.10;99.90
63289;DHT22;49412;48.162;-1.978;2022-09-09T01:54:51;16.10;99.90
63289;DHT22;49412;48.162;-1.978;2022-09-09T01:57:22;16.10;99.90
63289;DHT22;49412;48.162;-1.978;2022-09-09T02:00:06;16.20;99.90
63289;DHT22;49412;48.162;-1.978;2022-09-09T02:02:36;16.20;99.90
63289;DHT22;49412;48.162;-1.978;2022-09-09T02:05:08;16.20;99.90
63289;DHT22;49412;48.162;-1.978;2022-09-09T02:07:40;16.30;99.90
63289;DHT22;49412;48.162;-1.978;2022-09-09T02:12:45;16.30;99.90
63289;DHT22;49412;48.162;-1.978;2022-09-09T02:15:30;16.30;99.90
63289;DHT22;49412;48.162;-1.978;2022-09-09T02:17:57;16.30;99.90
63289;DHT22;49412;48.162;-1.978;2022-09-09T02:20:24;16.40;99.90
63289;DHT22;49412;48.162;-1.978;2022-09-09T02:22:52;16.40;99.90
63289;DHT22;49412;48.162;-1.978;2022-09-09T02:25:19;16.40;99.90
63289;DHT22;49412;48.162;-1.978;2022-09-09T02:27:45;16.30;99.90
63289;DHT22;49412;48.162;-1.978;2022-09-09T02:30:12;16.30;99.90
63289;DHT22;49412;48.162;-1.978;2022-09-09T02:32:38;16.30;99.90
63289;DHT22;49412;48.162;-1.978;2022-09-09T02:35:09;16.30;99.90
63289;DHT22;49412;48.162;-1.978;2022-09-09T02:37:38;16.30;99.90
63289;DHT22;49412;48.162;-1.978;2022-09-09T02:40:06;16.30;99.90
63289;DHT22;49412;48.162;-1.978;2022-09-09T02:42:38;16.30;99.90
63289;DHT22;49412;48.162;-1.978;2022-09-09T02:45:04;16.30;99.90
63289;DHT22;49412;48.162;-1.978;2022-09-09T02:47:33;16.30;99.90
63289;DHT22;49412;48.162;-1.978;2022-09-09T02:50:19;16.40;99.90
63289;DHT22;49412;48.162;-1.978;2022-09-09T02:52:54;16.40;99.90
63289;DHT22;49412;48.162;-1.978;2022-09-09T02:55:38;16.30;99.90
63289;DHT22;49412;48.162;-1.978;2022-09-09T02:58:05;16.20;99.90
63289;DHT22;49412;48.162;-1.978;2022-09-09T03:00:32;16.20;99.90
63289;DHT22;49412;48.162;-1.978;2022-09-09T03:02:58;16.30;99.90
63289;DHT22;49412;48.162;-1.978;2022-09-09T03:05:23;16.20;99.90
63289;DHT22;49412;48.162;-1.978;2022-09-09T03:07:49;16.10;99.90
63289;DHT22;49412;48.162;-1.978;2022-09-09T03:10:16;16.10;99.90
63289;DHT22;49412;48.162;-1.978;2022-09-09T03:12:41;16.10;99.90
63289;DHT22;49412;48.162;-1.978;2022-09-09T03:15:07;16.20;99.90
63289;DHT22;49412;48.162;-1.978;2022-09-09T03:17:33;16.10;99.90
63289;DHT22;49412;48.162;-1.978;2022-09-09T03:19:59;16.10;99.90
63289;DHT22;49412;48.162;-1.978;2022-09-09T03:22:25;16.10;99.90
63289;DHT22;49412;48.162;-1.978;2022-09-09T03:24:51;16.00;99.90
63289;DHT22;49412;48.162;-1.978;2022-09-09T03:27:17;16.00;99.90
63289;DHT22;49412;48.162;-1.978;2022-09-09T03:29:42;15.90;99.90
63289;DHT22;49412;48.162;-1.978;2022-09-09T03:32:08;15.90;99.90
63289;DHT22;49412;48.162;-1.978;2022-09-09T03:34:36;16.00;99.90
63289;DHT22;49412;48.162;-1.978;2022-09-09T03:37:04;16.00;99.90
63289;DHT22;49412;48.162;-1.978;2022-09-09T03:39:30;15.90;99.90
63289;DHT22;49412;48.162;-1.978;2022-09-09T03:41:55;15.80;99.90
63289;DHT22;49412;48.162;-1.978;2022-09-09T03:44:21;15.90;99.90
63289;DHT22;49412;48.162;-1.978;2022-09-09T03:46:47;15.80;99.90
63289;DHT22;49412;48.162;-1.978;2022-09-09T03:49:12;15.80;99.90
63289;DHT22;49412;48.162;-1.978;2022-09-09T03:51:38;15.80;99.90
63289;DHT22;49412;48.162;-1.978;2022-09-09T03:54:04;15.80;99.90
63289;DHT22;49412;48.162;-1.978;2022-09-09T03:56:30;15.70;99.90
63289;DHT22;49412;48.162;-1.978;2022-09-09T03:58:56;15.70;99.90
63289;DHT22;49412;48.162;-1.978;2022-09-09T04:01:22;15.60;99.90
63289;DHT22;49412;48.162;-1.978;2022-09-09T04:03:48;15.60;99.90
63289;DHT22;49412;48.162;-1.978;2022-09-09T04:06:14;15.60;99.90
63289;DHT22;49412;48.162;-1.978;2022-09-09T04:08:40;15.60;99.90
63289;DHT22;49412;48.162;-1.978;2022-09-09T04:11:06;15.60;99.90
63289;DHT22;49412;48.162;-1.978;2022-09-09T04:13:36;15.60;99.90
63289;DHT22;49412;48.162;-1.978;2022-09-09T04:16:03;15.70;99.90
63289;DHT22;49412;48.162;-1.978;2022-09-09T04:18:29;15.60;99.90
63289;DHT22;49412;48.162;-1.978;2022-09-09T04:20:55;15.70;99.90
63289;DHT22;49412;48.162;-1.978;2022-09-09T04:23:25;15.70;99.90
63289;DHT22;49412;48.162;-1.978;2022-09-09T04:25:51;15.80;99.90
63289;DHT22;49412;48.162;-1.978;2022-09-09T04:28:17;15.80;99.90
63289;DHT22;49412;48.162;-1.978;2022-09-09T04:30:43;15.80;99.90
63289;DHT22;49412;48.162;-1.978;2022-09-09T04:33:09;15.80;99.90
63289;DHT22;49412;48.162;-1.978;2022-09-09T04:35:36;15.70;99.90
63289;DHT22;49412;48.162;-1.978;2022-09-09T04:38:02;15.80;99.90
63289;DHT22;49412;48.162;-1.978;2022-09-09T04:40:28;15.80;99.90
63289;DHT22;49412;48.162;-1.978;2022-09-09T04:42:55;15.80;99.90
63289;DHT22;49412;48.162;-1.978;2022-09-09T04:45:20;15.70;99.90
63289;DHT22;49412;48.162;-1.978;2022-09-09T04:47:46;15.70;99.90
63289;DHT22;49412;48.162;-1.978;2022-09-09T04:50:12;15.70;99.90
63289;DHT22;49412;48.162;-1.978;2022-09-09T04:52:37;15.70;99.90
63289;DHT22;49412;48.162;-1.978;2022-09-09T04:55:03;15.70;99.90
63289;DHT22;49412;48.162;-1.978;2022-09-09T04:57:29;15.60;99.90
63289;DHT22;49412;48.162;-1.978;2022-09-09T04:59:57;15.60;99.90
63289;DHT22;49412;48.162;-1.978;2022-09-09T05:02:23;15.60;99.90
63289;DHT22;49412;48.162;-1.978;2022-09-09T05:04:48;15.60;99.90
63289;DHT22;49412;48.162;-1.978;2022-09-09T05:07:15;15.60;99.90
63289;DHT22;49412;48.162;-1.978;2022-09-09T05:09:40;15.60;99.90
63289;DHT22;49412;48.162;-1.978;2022-09-09T05:12:06;15.60;99.90
63289;DHT22;49412;48.162;-1.978;2022-09-09T05:14:31;15.60;99.90
63289;DHT22;49412;48.162;-1.978;2022-09-09T05:16:57;15.60;99.90
63289;DHT22;49412;48.162;-1.978;2022-09-09T05:19:23;15.60;99.90
63289;DHT22;49412;48.162;-1.978;2022-09-09T05:21:49;15.60;99.90
63289;DHT22;49412;48.162;-1.978;2022-09-09T05:24:15;15.60;99.90
63289;DHT22;49412;48.162;-1.978;2022-09-09T05:26:42;15.60;99.90
63289;DHT22;49412;48.162;-1.978;2022-09-09T05:29:08;15.70;99.90
63289;DHT22;49412;48.162;-1.978;2022-09-09T05:31:34;15.60;99.90
63289;DHT22;49412;48.162;-1.978;2022-09-09T05:33:59;15.70;99.90
63289;DHT22;49412;48.162;-1.978;2022-09-09T05:36:25;15.70;99.90
63289;DHT22;49412;48.162;-1.978;2022-09-09T05:38:51;15.70;99.90
63289;DHT22;49412;48.162;-1.978;2022-09-09T05:41:19;15.70;99.90
63289;DHT22;49412;48.162;-1.978;2022-09-09T05:43:45;15.70;99.90
63289;DHT22;49412;48.162;-1.978;2022-09-09T05:46:15;15.70;99.90
63289;DHT22;49412;48.162;-1.978;2022-09-09T05:48:41;15.70;99.90
63289;DHT22;49412;48.162;-1.978;2022-09-09T05:51:11;15.70;99.90
63289;DHT22;49412;48.162;-1.978;2022-09-09T05:53:37;15.60;99.90
63289;DHT22;49412;48.162;-1.978;2022-09-09T05:56:07;15.70;99.90
63289;DHT22;49412;48.162;-1.978;2022-09-09T05:58:35;15.80;99.90
63289;DHT22;49412;48.162;-1.978;2022-09-09T06:01:05;15.80;99.90
63289;DHT22;49412;48.162;-1.978;2022-09-09T06:03:32;15.80;99.90
63289;DHT22;49412;48.162;-1.978;2022-09-09T06:05:58;15.80;99.90
63289;DHT22;49412;48.162;-1.978;2022-09-09T06:08:24;15.90;99.90
63289;DHT22;49412;48.162;-1.978;2022-09-09T06:10:50;15.90;99.90
63289;DHT22;49412;48.162;-1.978;2022-09-09T06:13:17;16.00;99.90
63289;DHT22;49412;48.162;-1.978;2022-09-09T06:15:49;16.10;99.90
63289;DHT22;49412;48.162;-1.978;2022-09-09T06:18:15;16.50;99.90
63289;DHT22;49412;48.162;-1.978;2022-09-09T06:20:43;16.80;99.90
63289;DHT22;49412;48.162;-1.978;2022-09-09T06:23:19;16.70;99.90
63289;DHT22;49412;48.162;-1.978;2022-09-09T06:25:45;17.10;99.90
63289;DHT22;49412;48.162;-1.978;2022-09-09T06:28:11;17.40;99.90
63289;DHT22;49412;48.162;-1.978;2022-09-09T06:30:36;17.80;99.90
63289;DHT22;49412;48.162;-1.978;2022-09-09T06:33:02;18.20;99.90
63289;DHT22;49412;48.162;-1.978;2022-09-09T06:35:29;18.60;99.90
63289;DHT22;49412;48.162;-1.978;2022-09-09T06:37:54;18.90;99.90
63289;DHT22;49412;48.162;-1.978;2022-09-09T06:40:20;19.00;99.90
63289;DHT22;49412;48.162;-1.978;2022-09-09T06:42:45;19.50;99.90
63289;DHT22;49412;48.162;-1.978;2022-09-09T06:45:11;19.70;99.90
63289;DHT22;49412;48.162;-1.978;2022-09-09T06:47:37;20.30;99.90
63289;DHT22;49412;48.162;-1.978;2022-09-09T06:50:02;20.80;99.90
63289;DHT22;49412;48.162;-1.978;2022-09-09T06:52:28;21.00;99.90
63289;DHT22;49412;48.162;-1.978;2022-09-09T06:54:54;20.50;99.90
63289;DHT22;49412;48.162;-1.978;2022-09-09T06:57:19;19.40;99.90
63289;DHT22;49412;48.162;-1.978;2022-09-09T06:59:45;18.70;99.90
63289;DHT22;49412;48.162;-1.978;2022-09-09T07:02:11;18.30;99.90
63289;DHT22;49412;48.162;-1.978;2022-09-09T07:04:36;18.10;99.90
63289;DHT22;49412;48.162;-1.978;2022-09-09T07:07:02;18.10;99.90
63289;DHT22;49412;48.162;-1.978;2022-09-09T07:09:27;17.90;99.90
63289;DHT22;49412;48.162;-1.978;2022-09-09T07:11:54;17.90;99.90
63289;DHT22;49412;48.162;-1.978;2022-09-09T07:14:25;17.80;99.90
63289;DHT22;49412;48.162;-1.978;2022-09-09T07:16:51;17.70;99.90
63289;DHT22;49412;48.162;-1.978;2022-09-09T07:19:17;17.70;99.90
63289;DHT22;49412;48.162;-1.978;2022-09-09T07:21:42;17.80;99.90
63289;DHT22;49412;48.162;-1.978;2022-09-09T07:24:08;17.70;99.90
63289;DHT22;49412;48.162;-1.978;2022-09-09T07:26:35;17.70;99.90
63289;DHT22;49412;48.162;-1.978;2022-09-09T07:29:01;17.40;99.90
63289;DHT22;49412;48.162;-1.978;2022-09-09T07:31:28;17.50;99.90
63289;DHT22;49412;48.162;-1.978;2022-09-09T07:33:55;17.70;99.90
63289;DHT22;49412;48.162;-1.978;2022-09-09T07:36:23;18.70;99.90
63289;DHT22;49412;48.162;-1.978;2022-09-09T07:38:50;19.70;99.90
63289;DHT22;49412;48.162;-1.978;2022-09-09T07:41:18;20.10;99.90
63289;DHT22;49412;48.162;-1.978;2022-09-09T07:43:45;20.90;99.90
63289;DHT22;49412;48.162;-1.978;2022-09-09T07:46:11;23.30;99.90
63289;DHT22;49412;48.162;-1.978;2022-09-09T07:48:37;21.50;99.90
63289;DHT22;49412;48.162;-1.978;2022-09-09T07:51:07;20.30;99.90
63289;DHT22;49412;48.162;-1.978;2022-09-09T07:53:33;19.50;99.90
63289;DHT22;49412;48.162;-1.978;2022-09-09T07:56:03;18.90;99.90
63289;DHT22;49412;48.162;-1.978;2022-09-09T07:58:29;18.70;99.90
63289;DHT22;49412;48.162;-1.978;2022-09-09T08:00:55;18.40;99.90
63289;DHT22;49412;48.162;-1.978;2022-09-09T08:03:20;18.40;99.90
63289;DHT22;49412;48.162;-1.978;2022-09-09T08:05:47;18.40;99.90
63289;DHT22;49412;48.162;-1.978;2022-09-09T08:08:15;18.50;99.90
63289;DHT22;49412;48.162;-1.978;2022-09-09T08:10:42;18.40;99.90
63289;DHT22;49412;48.162;-1.978;2022-09-09T08:13:08;18.60;99.90
63289;DHT22;49412;48.162;-1.978;2022-09-09T08:15:34;18.80;99.90
63289;DHT22;49412;48.162;-1.978;2022-09-09T08:17:59;18.80;99.90
63289;DHT22;49412;48.162;-1.978;2022-09-09T08:20:25;19.00;99.90
63289;DHT22;49412;48.162;-1.978;2022-09-09T08:22:50;18.90;99.90
63289;DHT22;49412;48.162;-1.978;2022-09-09T08:25:16;18.90;99.90
63289;DHT22;49412;48.162;-1.978;2022-09-09T08:27:41;19.20;99.90
63289;DHT22;49412;48.162;-1.978;2022-09-09T08:30:07;19.30;99.90
63289;DHT22;49412;48.162;-1.978;2022-09-09T08:32:33;19.50;99.90
63289;DHT22;49412;48.162;-1.978;2022-09-09T08:35:00;19.80;99.90
63289;DHT22;49412;48.162;-1.978;2022-09-09T08:37:26;19.80;99.90
63289;DHT22;49412;48.162;-1.978;2022-09-09T08:39:51;19.80;99.90
63289;DHT22;49412;48.162;-1.978;2022-09-09T08:44:52;20.10;99.90
63289;DHT22;49412;48.162;-1.978;2022-09-09T08:52:30;20.10;99.90
63289;DHT22;49412;48.162;-1.978;2022-09-09T08:54:57;19.90;99.90
63289;DHT22;49412;48.162;-1.978;2022-09-09T08:57:25;19.60;99.90
63289;DHT22;49412;48.162;-1.978;2022-09-09T08:59:52;19.60;99.90
63289;DHT22;49412;48.162;-1.978;2022-09-09T09:10:03;20.90;99.90
63289;DHT22;49412;48.162;-1.978;2022-09-09T09:12:33;21.80;99.90
63289;DHT22;49412;48.162;-1.978;2022-09-09T09:15:00;23.70;99.90
63289;DHT22;49412;48.162;-1.978;2022-09-09T09:17:27;25.00;99.90
63289;DHT22;49412;48.162;-1.978;2022-09-09T09:19:53;24.00;99.90
63289;DHT22;49412;48.162;-1.978;2022-09-09T09:22:19;24.30;99.90
63289;DHT22;49412;48.162;-1.978;2022-09-09T09:24:54;24.90;99.90
63289;DHT22;49412;48.162;-1.978;2022-09-09T09:27:33;25.30;99.90
63289;DHT22;49412;48.162;-1.978;2022-09-09T09:30:01;24.40;99.90
63289;DHT22;49412;48.162;-1.978;2022-09-09T09:32:28;26.40;99.90
63289;DHT22;49412;48.162;-1.978;2022-09-09T09:34:56;24.80;99.50
63289;DHT22;49412;48.162;-1.978;2022-09-09T09:37:26;27.90;97.90
63289;DHT22;49412;48.162;-1.978;2022-09-09T09:39:53;30.60;90.50
63289;DHT22;49412;48.162;-1.978;2022-09-09T09:42:19;29.60;88.70
63289;DHT22;49412;48.162;-1.978;2022-09-09T09:44:45;32.20;86.00
63289;DHT22;49412;48.162;-1.978;2022-09-09T09:47:14;29.20;82.00
63289;DHT22;49412;48.162;-1.978;2022-09-09T09:49:56;26.20;89.90
63289;DHT22;49412;48.162;-1.978;2022-09-09T09:52:25;24.60;94.70
63289;DHT22;49412;48.162;-1.978;2022-09-09T09:54:51;23.10;99.90
63289;DHT22;49412;48.162;-1.978;2022-09-09T09:57:18;22.30;99.90
63289;DHT22;49412;48.162;-1.978;2022-09-09T09:59:44;21.60;99.90
63289;DHT22;49412;48.162;-1.978;2022-09-09T10:02:18;21.00;99.90
63289;DHT22;49412;48.162;-1.978;2022-09-09T10:04:44;21.00;99.90
63289;DHT22;49412;48.162;-1.978;2022-09-09T10:07:20;20.60;99.90
63289;DHT22;49412;48.162;-1.978;2022-09-09T10:09:51;19.90;99.90
63289;DHT22;49412;48.162;-1.978;2022-09-09T10:12:22;19.60;99.90
63289;DHT22;49412;48.162;-1.978;2022-09-09T10:19:55;20.80;99.90
63289;DHT22;49412;48.162;-1.978;2022-09-09T10:23:08;21.40;99.90
63289;DHT22;49412;48.162;-1.978;2022-09-09T10:25:26;21.90;99.90
63289;DHT22;49412;48.162;-1.978;2022-09-09T10:30:34;22.20;99.90
63289;DHT22;49412;48.162;-1.978;2022-09-09T10:33:10;23.40;99.90
63289;DHT22;49412;48.162;-1.978;2022-09-09T10:35:42;24.60;99.90
63289;DHT22;49412;48.162;-1.978;2022-09-09T10:38:16;27.30;99.90
63289;DHT22;49412;48.162;-1.978;2022-09-09T10:45:48;35.70;73.80
63289;DHT22;49412;48.162;-1.978;2022-09-09T10:48:58;37.00;65.00
63289;DHT22;49412;48.162;-1.978;2022-09-09T10:53:51;38.70;57.70
63289;DHT22;49412;48.162;-1.978;2022-09-09T10:56:19;33.40;60.60
63289;DHT22;49412;48.162;-1.978;2022-09-09T11:01:19;32.00;63.90
63289;DHT22;49412;48.162;-1.978;2022-09-09T11:03:47;28.80;69.30
63289;DHT22;49412;48.162;-1.978;2022-09-09T11:06:16;27.30;75.40
63289;DHT22;49412;48.162;-1.978;2022-09-09T11:08:45;26.10;80.00
63289;DHT22;49412;48.162;-1.978;2022-09-09T11:14:19;25.70;91.20
63289;DHT22;49412;48.162;-1.978;2022-09-09T11:19:02;27.60;81.30
63289;DHT22;49412;48.162;-1.978;2022-09-09T11:21:33;27.30;83.80
63289;DHT22;49412;48.162;-1.978;2022-09-09T11:24:04;28.20;80.10
63289;DHT22;49412;48.162;-1.978;2022-09-09T11:26:39;27.20;81.70
63289;DHT22;49412;48.162;-1.978;2022-09-09T11:42:06;29.70;69.70
63289;DHT22;49412;48.162;-1.978;2022-09-09T11:44:32;34.20;66.60
63289;DHT22;49412;48.162;-1.978;2022-09-09T11:46:59;36.70;61.60
63289;DHT22;49412;48.162;-1.978;2022-09-09T11:49:27;36.30;59.10
63289;DHT22;49412;48.162;-1.978;2022-09-09T11:51:53;38.00;59.00
63289;DHT22;49412;48.162;-1.978;2022-09-09T11:54:28;38.70;55.50
63289;DHT22;49412;48.162;-1.978;2022-09-09T11:56:54;38.00;54.10
63289;DHT22;49412;48.162;-1.978;2022-09-09T11:59:20;36.20;57.20
63289;DHT22;49412;48.162;-1.978;2022-09-09T12:01:55;37.30;57.00
63289;DHT22;49412;48.162;-1.978;2022-09-09T12:06:51;39.20;53.30
63289;DHT22;49412;48.162;-1.978;2022-09-09T12:12:16;40.70;51.80
63289;DHT22;49412;48.162;-1.978;2022-09-09T12:17:31;40.80;50.10
63289;DHT22;49412;48.162;-1.978;2022-09-09T12:20:00;41.40;49.30
63289;DHT22;49412;48.162;-1.978;2022-09-09T12:23:18;38.90;49.40
63289;DHT22;49412;48.162;-1.978;2022-09-09T12:25:22;35.40;52.30
63289;DHT22;49412;48.162;-1.978;2022-09-09T12:30:15;30.70;58.00
63289;DHT22;49412;48.162;-1.978;2022-09-09T12:32:41;30.30;60.50
63289;DHT22;49412;48.162;-1.978;2022-09-09T12:37:36;33.90;54.80
63289;DHT22;49412;48.162;-1.978;2022-09-09T12:40:03;31.30;57.80
63289;DHT22;49412;48.162;-1.978;2022-09-09T12:42:29;29.00;61.50
63289;DHT22;49412;48.162;-1.978;2022-09-09T12:47:21;25.70;70.80
63289;DHT22;49412;48.162;-1.978;2022-09-09T12:49:48;25.20;76.40
63289;DHT22;49412;48.162;-1.978;2022-09-09T12:52:26;24.80;87.80
63289;DHT22;49412;48.162;-1.978;2022-09-09T12:54:55;23.90;98.30
63289;DHT22;49412;48.162;-1.978;2022-09-09T12:57:22;22.50;99.90
63289;DHT22;49412;48.162;-1.978;2022-09-09T12:59:49;21.50;99.90
63289;DHT22;49412;48.162;-1.978;2022-09-09T13:02:22;21.40;99.90
63289;DHT22;49412;48.162;-1.978;2022-09-09T13:04:48;21.30;99.90
63289;DHT22;49412;48.162;-1.978;2022-09-09T13:07:16;21.40;99.90
63289;DHT22;49412;48.162;-1.978;2022-09-09T13:09:42;21.30;99.90
63289;DHT22;49412;48.162;-1.978;2022-09-09T13:12:11;20.90;99.90
63289;DHT22;49412;48.162;-1.978;2022-09-09T13:14:38;20.00;99.90
63289;DHT22;49412;48.162;-1.978;2022-09-09T13:17:05;18.90;99.90
63289;DHT22;49412;48.162;-1.978;2022-09-09T13:19:37;18.20;99.90
63289;DHT22;49412;48.162;-1.978;2022-09-09T13:24:44;18.10;99.90
63289;DHT22;49412;48.162;-1.978;2022-09-09T13:27:22;18.20;99.90
63289;DHT22;49412;48.162;-1.978;2022-09-09T13:29:53;18.10;99.90
63289;DHT22;49412;48.162;-1.978;2022-09-09T13:32:22;18.50;99.90
63289;DHT22;49412;48.162;-1.978;2022-09-09T13:34:52;18.90;99.90
63289;DHT22;49412;48.162;-1.978;2022-09-09T13:37:22;19.20;99.90
63289;DHT22;49412;48.162;-1.978;2022-09-09T13:39:52;19.90;99.90
63289;DHT22;49412;48.162;-1.978;2022-09-09T13:42:25;20.90;99.90
63289;DHT22;49412;48.162;-1.978;2022-09-09T13:44:51;22.10;99.90
63289;DHT22;49412;48.162;-1.978;2022-09-09T13:47:18;24.00;99.90
63289;DHT22;49412;48.162;-1.978;2022-09-09T13:49:47;24.70;99.90
63289;DHT22;49412;48.162;-1.978;2022-09-09T13:52:13;23.80;99.90
63289;DHT22;49412;48.162;-1.978;2022-09-09T13:54:40;22.80;99.90
63289;DHT22;49412;48.162;-1.978;2022-09-09T13:57:12;22.50;99.90
63289;DHT22;49412;48.162;-1.978;2022-09-09T13:59:39;22.00;99.90
63289;DHT22;49412;48.162;-1.978;2022-09-09T14:02:04;21.70;99.90
63289;DHT22;49412;48.162;-1.978;2022-09-09T14:04:30;21.30;99.90
63289;DHT22;49412;48.162;-1.978;2022-09-09T14:06:56;21.40;99.90
63289;DHT22;49412;48.162;-1.978;2022-09-09T14:09:21;21.20;99.90
63289;DHT22;49412;48.162;-1.978;2022-09-09T14:11:47;20.70;99.90
63289;DHT22;49412;48.162;-1.978;2022-09-09T14:14:13;20.30;99.90
63289;DHT22;49412;48.162;-1.978;2022-09-09T14:16:38;20.00;99.90
63289;DHT22;49412;48.162;-1.978;2022-09-09T14:19:04;19.80;99.90
63289;DHT22;49412;48.162;-1.978;2022-09-09T14:21:30;19.30;99.90
63289;DHT22;49412;48.162;-1.978;2022-09-09T14:23:55;19.30;99.90
63289;DHT22;49412;48.162;-1.978;2022-09-09T14:26:23;19.70;99.90
63289;DHT22;49412;48.162;-1.978;2022-09-09T14:28:49;20.20;99.90
63289;DHT22;49412;48.162;-1.978;2022-09-09T14:31:15;20.20;99.90
63289;DHT22;49412;48.162;-1.978;2022-09-09T14:33:43;20.30;99.90
63289;DHT22;49412;48.162;-1.978;2022-09-09T14:36:08;20.30;99.90
63289;DHT22;49412;48.162;-1.978;2022-09-09T14:38:35;20.50;99.90
63289;DHT22;49412;48.162;-1.978;2022-09-09T14:41:09;20.40;99.90
63289;DHT22;49412;48.162;-1.978;2022-09-09T14:43:36;20.80;99.90
63289;DHT22;49412;48.162;-1.978;2022-09-09T14:46:09;21.50;99.90
63289;DHT22;49412;48.162;-1.978;2022-09-09T14:48:35;23.00;99.90
63289;DHT22;49412;48.162;-1.978;2022-09-09T14:51:05;25.30;99.90
63289;DHT22;49412;48.162;-1.978;2022-09-09T14:53:30;24.80;99.90
63289;DHT22;49412;48.162;-1.978;2022-09-09T14:56:02;23.90;99.90
63289;DHT22;49412;48.162;-1.978;2022-09-09T14:58:30;25.80;99.90
63289;DHT22;49412;48.162;-1.978;2022-09-09T15:01:01;25.80;99.90
63289;DHT22;49412;48.162;-1.978;2022-09-09T15:03:27;25.20;99.90
63289;DHT22;49412;48.162;-1.978;2022-09-09T15:05:52;26.90;99.90
63289;DHT22;49412;48.162;-1.978;2022-09-09T15:08:18;27.80;96.40
63289;DHT22;49412;48.162;-1.978;2022-09-09T15:10:43;28.40;95.50
63289;DHT22;49412;48.162;-1.978;2022-09-09T15:13:10;30.80;92.60
63289;DHT22;49412;48.162;-1.978;2022-09-09T15:15:35;32.10;89.40
63289;DHT22;49412;48.162;-1.978;2022-09-09T15:18:01;32.00;84.80
63289;DHT22;49412;48.162;-1.978;2022-09-09T15:20:26;30.90;84.20
63289;DHT22;49412;48.162;-1.978;2022-09-09T15:22:52;31.80;84.10
63289;DHT22;49412;48.162;-1.978;2022-09-09T15:25:18;32.50;79.60
63289;DHT22;49412;48.162;-1.978;2022-09-09T15:27:43;32.70;77.50
63289;DHT22;49412;48.162;-1.978;2022-09-09T15:30:09;32.60;73.80
63289;DHT22;49412;48.162;-1.978;2022-09-09T15:32:35;31.60;75.00
63289;DHT22;49412;48.162;-1.978;2022-09-09T15:35:00;29.00;79.20
63289;DHT22;49412;48.162;-1.978;2022-09-09T15:37:26;26.20;84.90
63289;DHT22;49412;48.162;-1.978;2022-09-09T15:39:52;26.30;90.30
63289;DHT22;49412;48.162;-1.978;2022-09-09T15:42:18;29.00;80.20
63289;DHT22;49412;48.162;-1.978;2022-09-09T15:44:43;30.20;75.80
63289;DHT22;49412;48.162;-1.978;2022-09-09T15:47:12;29.90;74.60
63289;DHT22;49412;48.162;-1.978;2022-09-09T15:49:40;29.90;74.50
63289;DHT22;49412;48.162;-1.978;2022-09-09T15:52:06;30.80;70.80
63289;DHT22;49412;48.162;-1.978;2022-09-09T15:54:33;30.80;69.90
63289;DHT22;49412;48.162;-1.978;2022-09-09T15:57:00;29.90;68.80
63289;DHT22;49412;48.162;-1.978;2022-09-09T15:59:26;26.90;72.80
63289;DHT22;49412;48.162;-1.978;2022-09-09T16:01:55;24.90;79.40
63289;DHT22;49412;48.162;-1.978;2022-09-09T16:04:21;23.80;88.10
63289;DHT22;49412;48.162;-1.978;2022-09-09T16:06:50;23.50;90.50
63289;DHT22;49412;48.162;-1.978;2022-09-09T16:09:16;23.20;92.10
63289;DHT22;49412;48.162;-1.978;2022-09-09T16:11:45;23.10;94.00
63289;DHT22;49412;48.162;-1.978;2022-09-09T16:14:13;22.90;95.50
63289;DHT22;49412;48.162;-1.978;2022-09-09T16:16:41;23.00;95.90
63289;DHT22;49412;48.162;-1.978;2022-09-09T16:19:09;22.90;97.90
63289;DHT22;49412;48.162;-1.978;2022-09-09T16:21:40;23.10;98.20
63289;DHT22;49412;48.162;-1.978;2022-09-09T16:24:07;23.20;98.70
63289;DHT22;49412;48.162;-1.978;2022-09-09T16:26:36;23.30;97.50
63289;DHT22;49412;48.162;-1.978;2022-09-09T16:29:03;23.40;97.30
63289;DHT22;49412;48.162;-1.978;2022-09-09T16:31:30;23.50;97.90
63289;DHT22;49412;48.162;-1.978;2022-09-09T16:34:00;23.80;97.10
63289;DHT22;49412;48.162;-1.978;2022-09-09T16:36:27;23.80;96.70
63289;DHT22;49412;48.162;-1.978;2022-09-09T16:39:03;23.70;97.00
63289;DHT22;49412;48.162;-1.978;2022-09-09T16:41:33;23.80;97.60
63289;DHT22;49412;48.162;-1.978;2022-09-09T16:44:06;23.70;97.20
63289;DHT22;49412;48.162;-1.978;2022-09-09T16:46:39;23.40;98.50
63289;DHT22;49412;48.162;-1.978;2022-09-09T16:49:12;23.30;98.80
63289;DHT22;49412;48.162;-1.978;2022-09-09T16:51:42;22.70;98.30
63289;DHT22;49412;48.162;-1.978;2022-09-09T16:54:10;22.40;99.20
63289;DHT22;49412;48.162;-1.978;2022-09-09T16:56:38;22.00;99.80
63289;DHT22;49412;48.162;-1.978;2022-09-09T16:59:18;21.80;99.90
63289;DHT22;49412;48.162;-1.978;2022-09-09T17:01:46;21.50;99.90
63289;DHT22;49412;48.162;-1.978;2022-09-09T17:04:13;21.20;99.90
63289;DHT22;49412;48.162;-1.978;2022-09-09T17:06:45;20.90;99.90
63289;DHT22;49412;48.162;-1.978;2022-09-09T17:09:11;20.50;99.90